Terminal Aerodrome Forecast
Issued by NWS

Home | Current Version | Previous Version | Text Only | Print | Product List | Glossary On
Versions: 1 2 3 4 5 6 7 8 9 10 11 12 13 14 15 16 17 18 19 20
000
FTUS43 KGLD 271753
TAFMCK
TAF
KMCK 271753Z 2718/2818 30010KT P6SM -TSRA BKN080CB
     FM272000 10006KT P6SM VCTS SCT080CB BKN120
     FM280300 07007KT P6SM VCTS SCT050CB BKN080 PROB30 2803/2806
      TSRA OVC040CB
     FM280700 03007KT P6SM BKN060
     FM281600 09008KT P6SM FEW080 SCT150=

USA.gov is the U.S. government's official web portal to all federal, state and local government web resources and services.